KMKN

Comanche County-City Airport

Comanche, Texas, USA
METAR KMKN 122055Z AUTO 21006KT 10SM CLR 16/11 A2986 RMK AO2 T01550105
Observed Flight Rules
Dec-12 @ 20:55 UTC (12 minutes ago) Visual Flight Rules
Wind Visibility Clouds
210° at 6 knots 10 miles
  • Clear skies
Temperatures Readings
Current 16°C / 61°F
Dewpoint 11°C / 52°F
Humidity 72%
Altimeter 29.86" Hg
Pressure 1011 hPa
Elevation 423
METAR KMKN 122055Z AUTO 21006KT 10SM CLR 16/11 A2986 RMK AO2 T01550105
Observed Flight Rules
Dec-12 @ 20:55 UTC
(12 minutes ago)
VFR
Wind Visibility
210° at 6 knots 10 miles
Clouds
  • Clear skies
Temperature Dewpoint
16°C / 61°F 11°C / 52°F
Humidity Altimeter Pressure
72% 29.86" Hg 1011 hPa